sensor_id;sensor_type;location;lat;lon;timestamp;pressure;altitude;pressure_sealevel;temperature;humidity
7433;BME280;32233;49.500;7.764;2023-06-14T00:02:21;98071.56;;;12.73;66.84
7433;BME280;32233;49.500;7.764;2023-06-14T00:04:48;98073.81;;;12.88;66.18
7433;BME280;32233;49.500;7.764;2023-06-14T00:07:17;98073.56;;;12.78;66.89
7433;BME280;32233;49.500;7.764;2023-06-14T00:09:45;98067.88;;;12.74;67.43
7433;BME280;32233;49.500;7.764;2023-06-14T00:12:11;98070.66;;;12.79;65.96
7433;BME280;32233;49.500;7.764;2023-06-14T00:14:38;98060.94;;;12.73;66.68
7433;BME280;32233;49.500;7.764;2023-06-14T00:17:05;98062.44;;;12.69;67.22
7433;BME280;32233;49.500;7.764;2023-06-14T00:19:33;98060.13;;;12.73;67.51
7433;BME280;32233;49.500;7.764;2023-06-14T00:22:03;98063.59;;;12.73;66.26
7433;BME280;32233;49.500;7.764;2023-06-14T00:24:29;98054.69;;;12.68;66.37
7433;BME280;32233;49.500;7.764;2023-06-14T00:26:56;98058.91;;;12.57;66.06
7433;BME280;32233;49.500;7.764;2023-06-14T00:29:23;98055.94;;;12.65;66.96
7433;BME280;32233;49.500;7.764;2023-06-14T00:31:49;98058.59;;;12.65;66.59
7433;BME280;32233;49.500;7.764;2023-06-14T00:34:17;98061.72;;;12.62;66.34
7433;BME280;32233;49.500;7.764;2023-06-14T00:36:44;98061.88;;;12.49;68.48
7433;BME280;32233;49.500;7.764;2023-06-14T00:39:13;98061.53;;;12.45;66.31
7433;BME280;32233;49.500;7.764;2023-06-14T00:41:39;98064.38;;;12.44;68.08
7433;BME280;32233;49.500;7.764;2023-06-14T00:44:06;98054.38;;;12.46;67.16
7433;BME280;32233;49.500;7.764;2023-06-14T00:46:33;98066.75;;;12.33;68.44
7433;BME280;32233;49.500;7.764;2023-06-14T00:49:01;98068.00;;;12.31;66.56
7433;BME280;32233;49.500;7.764;2023-06-14T00:51:28;98068.75;;;12.38;68.03
7433;BME280;32233;49.500;7.764;2023-06-14T00:53:54;98069.00;;;12.48;67.50
7433;BME280;32233;49.500;7.764;2023-06-14T00:56:21;98074.78;;;12.45;67.04
7433;BME280;32233;49.500;7.764;2023-06-14T00:58:50;98074.97;;;12.44;67.00
7433;BME280;32233;49.500;7.764;2023-06-14T01:01:17;98067.13;;;12.37;67.81
7433;BME280;32233;49.500;7.764;2023-06-14T01:03:44;98071.53;;;12.25;68.39
7433;BME280;32233;49.500;7.764;2023-06-14T01:11:32;98075.56;;;12.27;68.37
7433;BME280;32233;49.500;7.764;2023-06-14T01:14:00;98081.31;;;12.06;68.84
7433;BME280;32233;49.500;7.764;2023-06-14T01:16:29;98087.28;;;12.01;69.21
7433;BME280;32233;49.500;7.764;2023-06-14T01:18:58;98086.00;;;12.04;69.29
7433;BME280;32233;49.500;7.764;2023-06-14T01:21:25;98082.94;;;11.82;71.22
7433;BME280;32233;49.500;7.764;2023-06-14T01:23:54;98087.41;;;11.88;72.33
7433;BME280;32233;49.500;7.764;2023-06-14T01:26:22;98090.31;;;11.80;71.86
7433;BME280;32233;49.500;7.764;2023-06-14T01:28:51;98094.47;;;11.69;72.90
7433;BME280;32233;49.500;7.764;2023-06-14T01:31:22;98096.69;;;11.72;72.65
7433;BME280;32233;49.500;7.764;2023-06-14T01:33:49;98100.06;;;11.79;73.07
7433;BME280;32233;49.500;7.764;2023-06-14T01:36:18;98099.50;;;11.52;74.38
7433;BME280;32233;49.500;7.764;2023-06-14T01:38:46;98093.78;;;11.55;74.52
7433;BME280;32233;49.500;7.764;2023-06-14T01:41:15;98095.44;;;11.50;75.77
7433;BME280;32233;49.500;7.764;2023-06-14T01:43:44;98098.75;;;11.38;77.24
7433;BME280;32233;49.500;7.764;2023-06-14T01:46:13;98096.63;;;11.54;75.72
7433;BME280;32233;49.500;7.764;2023-06-14T01:48:42;98096.72;;;11.40;76.80
7433;BME280;32233;49.500;7.764;2023-06-14T01:51:09;98103.75;;;11.22;77.94
7433;BME280;32233;49.500;7.764;2023-06-14T01:53:36;98108.34;;;11.08;77.72
7433;BME280;32233;49.500;7.764;2023-06-14T01:56:03;98109.63;;;10.92;79.45
7433;BME280;32233;49.500;7.764;2023-06-14T01:58:30;98102.13;;;10.89;80.19
7433;BME280;32233;49.500;7.764;2023-06-14T02:00:57;98100.28;;;10.89;79.44
7433;BME280;32233;49.500;7.764;2023-06-14T02:03:24;98104.19;;;10.80;80.88
7433;BME280;32233;49.500;7.764;2023-06-14T02:05:51;98103.00;;;10.76;81.87
7433;BME280;32233;49.500;7.764;2023-06-14T02:08:18;98103.16;;;10.81;81.74
7433;BME280;32233;49.500;7.764;2023-06-14T02:10:45;98104.59;;;10.84;82.16
7433;BME280;32233;49.500;7.764;2023-06-14T02:13:11;98105.00;;;10.81;82.42
7433;BME280;32233;49.500;7.764;2023-06-14T02:15:38;98107.94;;;10.66;83.24
7433;BME280;32233;49.500;7.764;2023-06-14T02:18:05;98104.06;;;10.69;83.52
7433;BME280;32233;49.500;7.764;2023-06-14T02:20:33;98109.56;;;10.60;84.08
7433;BME280;32233;49.500;7.764;2023-06-14T02:23:00;98114.00;;;10.73;83.09
7433;BME280;32233;49.500;7.764;2023-06-14T02:25:26;98111.22;;;10.61;84.01
7433;BME280;32233;49.500;7.764;2023-06-14T02:27:54;98103.47;;;10.60;84.18
7433;BME280;32233;49.500;7.764;2023-06-14T02:30:21;98111.41;;;10.60;83.98
7433;BME280;32233;49.500;7.764;2023-06-14T02:32:48;98107.31;;;10.64;83.19
7433;BME280;32233;49.500;7.764;2023-06-14T02:35:15;98116.34;;;10.50;83.06
7433;BME280;32233;49.500;7.764;2023-06-14T02:37:41;98119.41;;;10.40;84.36
7433;BME280;32233;49.500;7.764;2023-06-14T02:40:09;98117.97;;;10.24;85.17
7433;BME280;32233;49.500;7.764;2023-06-14T02:42:35;98120.44;;;10.32;84.67
7433;BME280;32233;49.500;7.764;2023-06-14T02:45:03;98117.41;;;10.29;84.55
7433;BME280;32233;49.500;7.764;2023-06-14T02:47:30;98109.88;;;10.19;85.46
7433;BME280;32233;49.500;7.764;2023-06-14T02:49:57;98115.78;;;10.08;85.95
7433;BME280;32233;49.500;7.764;2023-06-14T02:52:23;98113.53;;;10.18;85.41
7433;BME280;32233;49.500;7.764;2023-06-14T02:54:51;98114.75;;;10.15;85.28
7433;BME280;32233;49.500;7.764;2023-06-14T02:57:18;98118.63;;;10.06;86.35
7433;BME280;32233;49.500;7.764;2023-06-14T02:59:44;98113.75;;;10.03;87.20
7433;BME280;32233;49.500;7.764;2023-06-14T03:02:11;98116.84;;;9.93;86.83
7433;BME280;32233;49.500;7.764;2023-06-14T03:04:39;98116.84;;;9.93;87.12
7433;BME280;32233;49.500;7.764;2023-06-14T03:07:10;98119.66;;;10.05;87.20
7433;BME280;32233;49.500;7.764;2023-06-14T03:09:39;98116.41;;;9.83;88.83
7433;BME280;32233;49.500;7.764;2023-06-14T03:12:08;98115.22;;;9.86;88.35
7433;BME280;32233;49.500;7.764;2023-06-14T03:14:35;98124.97;;;9.79;88.63
7433;BME280;32233;49.500;7.764;2023-06-14T03:17:03;98131.25;;;9.78;88.50
7433;BME280;32233;49.500;7.764;2023-06-14T03:19:33;98130.66;;;9.76;89.38
7433;BME280;32233;49.500;7.764;2023-06-14T03:22:00;98137.34;;;9.65;89.72
7433;BME280;32233;49.500;7.764;2023-06-14T03:24:29;98123.94;;;9.66;89.68
7433;BME280;32233;49.500;7.764;2023-06-14T03:26:58;98136.34;;;9.66;89.46
7433;BME280;32233;49.500;7.764;2023-06-14T03:29:28;98133.72;;;9.59;90.06
7433;BME280;32233;49.500;7.764;2023-06-14T03:32:04;98135.53;;;9.65;89.72
7433;BME280;32233;49.500;7.764;2023-06-14T03:34:37;98136.16;;;9.67;89.09
7433;BME280;32233;49.500;7.764;2023-06-14T03:37:07;98133.50;;;9.67;90.50
7433;BME280;32233;49.500;7.764;2023-06-14T03:39:34;98144.66;;;9.70;89.70
7433;BME280;32233;49.500;7.764;2023-06-14T03:42:01;98144.66;;;9.70;90.18
7433;BME280;32233;49.500;7.764;2023-06-14T03:44:28;98150.97;;;9.68;90.63
7433;BME280;32233;49.500;7.764;2023-06-14T03:46:54;98156.25;;;9.68;91.51
7433;BME280;32233;49.500;7.764;2023-06-14T03:49:22;98151.78;;;9.76;91.47
7433;BME280;32233;49.500;7.764;2023-06-14T03:51:49;98154.00;;;9.65;92.06
7433;BME280;32233;49.500;7.764;2023-06-14T03:54:19;98162.72;;;9.79;92.27
7433;BME280;32233;49.500;7.764;2023-06-14T03:56:51;98153.81;;;9.80;91.91
7433;BME280;32233;49.500;7.764;2023-06-14T03:59:18;98150.56;;;9.85;91.50
7433;BME280;32233;49.500;7.764;2023-06-14T04:01:44;98161.53;;;9.88;91.12
7433;BME280;32233;49.500;7.764;2023-06-14T04:04:14;98158.03;;;10.08;91.99
7433;BME280;32233;49.500;7.764;2023-06-14T04:06:42;98156.22;;;10.15;90.46
7433;BME280;32233;49.500;7.764;2023-06-14T04:09:10;98158.03;;;10.14;91.15
7433;BME280;32233;49.500;7.764;2023-06-14T04:11:37;98164.56;;;10.25;90.59
7433;BME280;32233;49.500;7.764;2023-06-14T04:14:03;98162.09;;;10.37;90.97
7433;BME280;32233;49.500;7.764;2023-06-14T04:16:30;98168.59;;;10.34;90.98
7433;BME280;32233;49.500;7.764;2023-06-14T04:18:58;98170.63;;;10.46;89.91
7433;BME280;32233;49.500;7.764;2023-06-14T04:21:25;98177.47;;;10.60;89.56
7433;BME280;32233;49.500;7.764;2023-06-14T04:23:55;98173.78;;;10.74;88.10
7433;BME280;32233;49.500;7.764;2023-06-14T04:26:26;98177.00;;;10.83;86.60
7433;BME280;32233;49.500;7.764;2023-06-14T04:28:56;98178.41;;;10.85;86.69
7433;BME280;32233;49.500;7.764;2023-06-14T04:31:30;98187.13;;;10.99;86.17
7433;BME280;32233;49.500;7.764;2023-06-14T04:34:01;98185.59;;;11.23;85.62
7433;BME280;32233;49.500;7.764;2023-06-14T04:36:27;98180.38;;;11.41;84.19
7433;BME280;32233;49.500;7.764;2023-06-14T04:38:54;98181.63;;;11.39;85.45
7433;BME280;32233;49.500;7.764;2023-06-14T04:41:24;98183.81;;;11.49;84.52
7433;BME280;32233;49.500;7.764;2023-06-14T04:43:59;98182.38;;;11.78;84.10
7433;BME280;32233;49.500;7.764;2023-06-14T04:46:31;98196.19;;;11.86;83.21
7433;BME280;32233;49.500;7.764;2023-06-14T04:49:16;98193.91;;;12.15;82.76
7433;BME280;32233;49.500;7.764;2023-06-14T04:51:44;98193.22;;;12.26;80.25
7433;BME280;32233;49.500;7.764;2023-06-14T04:54:11;98197.34;;;12.40;80.96
7433;BME280;32233;49.500;7.764;2023-06-14T04:56:41;98199.38;;;12.63;80.92
7433;BME280;32233;49.500;7.764;2023-06-14T04:59:12;98202.69;;;12.96;77.17
7433;BME280;32233;49.500;7.764;2023-06-14T05:01:40;98206.47;;;13.18;76.11
7433;BME280;32233;49.500;7.764;2023-06-14T05:04:07;98203.63;;;13.20;74.56
7433;BME280;32233;49.500;7.764;2023-06-14T05:06:33;98205.56;;;13.31;74.89
7433;BME280;32233;49.500;7.764;2023-06-14T05:09:00;98213.78;;;13.41;74.31
7433;BME280;32233;49.500;7.764;2023-06-14T05:11:27;98214.06;;;13.63;72.89
7433;BME280;32233;49.500;7.764;2023-06-14T05:13:55;98208.06;;;13.56;74.59
7433;BME280;32233;49.500;7.764;2023-06-14T05:16:22;98210.56;;;13.51;74.12
7433;BME280;32233;49.500;7.764;2023-06-14T05:18:51;98210.81;;;14.03;71.92
7433;BME280;32233;49.500;7.764;2023-06-14T05:21:18;98210.78;;;13.91;72.99
7433;BME280;32233;49.500;7.764;2023-06-14T05:23:45;98208.09;;;14.21;71.43
7433;BME280;32233;49.500;7.764;2023-06-14T05:26:11;98202.78;;;14.33;70.99
7433;BME280;32233;49.500;7.764;2023-06-14T05:28:38;98205.59;;;15.30;66.78
7433;BME280;32233;49.500;7.764;2023-06-14T05:31:05;98205.03;;;16.36;62.04
7433;BME280;32233;49.500;7.764;2023-06-14T05:33:31;98195.69;;;17.92;56.59
7433;BME280;32233;49.500;7.764;2023-06-14T05:35:58;98200.31;;;18.39;55.05
7433;BME280;32233;49.500;7.764;2023-06-14T05:38:24;98197.72;;;18.49;52.26
7433;BME280;32233;49.500;7.764;2023-06-14T05:40:51;98195.56;;;19.97;48.94
7433;BME280;32233;49.500;7.764;2023-06-14T05:43:18;98189.34;;;20.38;46.41
7433;BME280;32233;49.500;7.764;2023-06-14T05:45:45;98193.59;;;21.44;43.65
7433;BME280;32233;49.500;7.764;2023-06-14T05:48:11;98193.03;;;20.77;45.45
7433;BME280;32233;49.500;7.764;2023-06-14T05:50:38;98192.59;;;21.20;43.29
7433;BME280;32233;49.500;7.764;2023-06-14T05:53:04;98202.22;;;21.36;41.77
7433;BME280;32233;49.500;7.764;2023-06-14T05:55:31;98195.16;;;21.90;41.57
7433;BME280;32233;49.500;7.764;2023-06-14T05:57:57;98194.47;;;22.13;40.60
7433;BME280;32233;49.500;7.764;2023-06-14T06:00:24;98200.41;;;22.39;39.18
7433;BME280;32233;49.500;7.764;2023-06-14T06:02:50;98194.72;;;22.94;37.87
7433;BME280;32233;49.500;7.764;2023-06-14T06:05:18;98195.31;;;23.15;37.52
7433;BME280;32233;49.500;7.764;2023-06-14T06:07:45;98189.34;;;23.56;35.59
7433;BME280;32233;49.500;7.764;2023-06-14T06:10:12;98196.25;;;23.62;36.55
7433;BME280;32233;49.500;7.764;2023-06-14T06:12:41;98200.09;;;22.46;36.67
7433;BME280;32233;49.500;7.764;2023-06-14T06:15:07;98197.59;;;23.83;34.43
7433;BME280;32233;49.500;7.764;2023-06-14T06:17:41;98191.34;;;23.69;34.87
7433;BME280;32233;49.500;7.764;2023-06-14T06:20:22;98208.22;;;23.56;34.63
7433;BME280;32233;49.500;7.764;2023-06-14T06:22:56;98199.44;;;23.69;34.34
7433;BME280;32233;49.500;7.764;2023-06-14T06:25:23;98207.16;;;22.37;36.36
7433;BME280;32233;49.500;7.764;2023-06-14T06:27:53;98211.47;;;23.15;35.78
7433;BME280;32233;49.500;7.764;2023-06-14T06:30:20;98210.66;;;23.76;36.14
7433;BME280;32233;49.500;7.764;2023-06-14T06:32:48;98204.06;;;24.01;34.07
7433;BME280;32233;49.500;7.764;2023-06-14T06:35:15;98209.44;;;25.08;32.22
7433;BME280;32233;49.500;7.764;2023-06-14T06:37:44;98208.91;;;24.51;33.55
7433;BME280;32233;49.500;7.764;2023-06-14T06:40:11;98211.59;;;25.11;32.76
7433;BME280;32233;49.500;7.764;2023-06-14T06:42:39;98212.72;;;25.46;31.45
7433;BME280;32233;49.500;7.764;2023-06-14T06:45:10;98221.16;;;24.62;32.97
7433;BME280;32233;49.500;7.764;2023-06-14T06:47:38;98229.47;;;25.34;31.89
7433;BME280;32233;49.500;7.764;2023-06-14T06:50:05;98218.84;;;26.10;31.34
7433;BME280;32233;49.500;7.764;2023-06-14T06:52:33;98222.59;;;25.64;31.92
7433;BME280;32233;49.500;7.764;2023-06-14T06:55:00;98231.59;;;26.10;30.91
7433;BME280;32233;49.500;7.764;2023-06-14T06:57:27;98227.50;;;26.43;30.29
7433;BME280;32233;49.500;7.764;2023-06-14T06:59:55;98230.16;;;27.54;28.85
7433;BME280;32233;49.500;7.764;2023-06-14T07:02:21;98234.66;;;26.62;29.78
7433;BME280;32233;49.500;7.764;2023-06-14T07:04:48;98231.31;;;26.74;30.37
7433;BME280;32233;49.500;7.764;2023-06-14T07:07:15;98236.88;;;27.00;28.78
7433;BME280;32233;49.500;7.764;2023-06-14T07:09:41;98240.69;;;26.59;30.02
7433;BME280;32233;49.500;7.764;2023-06-14T07:12:11;98242.59;;;26.36;29.29
7433;BME280;32233;49.500;7.764;2023-06-14T07:14:40;98247.03;;;26.09;30.81
7433;BME280;32233;49.500;7.764;2023-06-14T07:17:07;98248.31;;;26.12;30.93
7433;BME280;32233;49.500;7.764;2023-06-14T07:19:36;98246.16;;;27.56;28.72
7433;BME280;32233;49.500;7.764;2023-06-14T07:22:04;98256.81;;;26.41;30.36
7433;BME280;32233;49.500;7.764;2023-06-14T07:24:32;98249.13;;;26.97;29.65
7433;BME280;32233;49.500;7.764;2023-06-14T07:26:59;98245.84;;;27.83;29.03
7433;BME280;32233;49.500;7.764;2023-06-14T07:29:26;98248.88;;;28.17;28.72
7433;BME280;32233;49.500;7.764;2023-06-14T07:31:53;98249.09;;;28.76;27.83
7433;BME280;32233;49.500;7.764;2023-06-14T07:34:20;98249.97;;;28.33;28.89
7433;BME280;32233;49.500;7.764;2023-06-14T07:36:46;98246.16;;;28.25;27.82
7433;BME280;32233;49.500;7.764;2023-06-14T07:39:13;98250.94;;;28.46;27.78
7433;BME280;32233;49.500;7.764;2023-06-14T07:41:40;98250.69;;;29.24;26.59
7433;BME280;32233;49.500;7.764;2023-06-14T07:44:07;98263.31;;;29.58;25.90
7433;BME280;32233;49.500;7.764;2023-06-14T07:46:34;98248.72;;;28.95;27.27
7433;BME280;32233;49.500;7.764;2023-06-14T07:49:01;98252.75;;;28.80;26.88
7433;BME280;32233;49.500;7.764;2023-06-14T07:51:27;98256.78;;;28.65;27.88
7433;BME280;32233;49.500;7.764;2023-06-14T07:53:54;98248.22;;;29.01;26.68
7433;BME280;32233;49.500;7.764;2023-06-14T07:56:21;98253.94;;;29.08;26.43
7433;BME280;32233;49.500;7.764;2023-06-14T07:58:49;98254.63;;;28.97;27.51
7433;BME280;32233;49.500;7.764;2023-06-14T08:01:16;98256.06;;;29.03;27.65
7433;BME280;32233;49.500;7.764;2023-06-14T08:03:43;98255.00;;;29.25;26.28
7433;BME280;32233;49.500;7.764;2023-06-14T08:06:10;98260.53;;;28.08;26.50
7433;BME280;32233;49.500;7.764;2023-06-14T08:08:36;98257.63;;;28.57;26.19
7433;BME280;32233;49.500;7.764;2023-06-14T08:11:03;98258.94;;;28.16;27.68
7433;BME280;32233;49.500;7.764;2023-06-14T08:13:29;98253.63;;;28.63;25.77
7433;BME280;32233;49.500;7.764;2023-06-14T08:15:59;98247.41;;;28.54;26.01
7433;BME280;32233;49.500;7.764;2023-06-14T08:18:27;98249.88;;;28.76;26.54
7433;BME280;32233;49.500;7.764;2023-06-14T08:20:54;98253.00;;;27.71;27.30
7433;BME280;32233;49.500;7.764;2023-06-14T08:23:20;98249.81;;;28.55;27.20
7433;BME280;32233;49.500;7.764;2023-06-14T08:25:48;98254.59;;;27.63;29.49
7433;BME280;32233;49.500;7.764;2023-06-14T08:28:14;98246.66;;;27.93;26.38
7433;BME280;32233;49.500;7.764;2023-06-14T08:30:44;98254.31;;;27.82;27.54
7433;BME280;32233;49.500;7.764;2023-06-14T08:33:11;98250.06;;;27.24;28.27
7433;BME280;32233;49.500;7.764;2023-06-14T08:35:42;98259.41;;;26.24;29.44
7433;BME280;32233;49.500;7.764;2023-06-14T08:38:10;98261.53;;;25.00;31.77
7433;BME280;32233;49.500;7.764;2023-06-14T08:40:38;98252.53;;;25.32;31.00
7433;BME280;32233;49.500;7.764;2023-06-14T08:43:05;98270.34;;;24.91;32.10
7433;BME280;32233;49.500;7.764;2023-06-14T08:45:32;98267.66;;;24.07;32.78
7433;BME280;32233;49.500;7.764;2023-06-14T08:47:59;98267.94;;;24.25;31.26
7433;BME280;32233;49.500;7.764;2023-06-14T08:50:27;98274.81;;;24.17;32.29
7433;BME280;32233;49.500;7.764;2023-06-14T08:52:59;98257.31;;;23.95;32.79
7433;BME280;32233;49.500;7.764;2023-06-14T08:55:30;98262.00;;;23.71;33.55
7433;BME280;32233;49.500;7.764;2023-06-14T08:58:03;98263.72;;;23.62;34.01
7433;BME280;32233;49.500;7.764;2023-06-14T09:00:31;98272.94;;;23.80;33.72
7433;BME280;32233;49.500;7.764;2023-06-14T09:03:00;98270.53;;;23.78;34.06
7433;BME280;32233;49.500;7.764;2023-06-14T09:05:28;98274.69;;;23.70;34.42
7433;BME280;32233;49.500;7.764;2023-06-14T09:07:55;98267.03;;;23.78;33.14
7433;BME280;32233;49.500;7.764;2023-06-14T09:10:24;98272.50;;;23.72;33.61
7433;BME280;32233;49.500;7.764;2023-06-14T09:12:52;98264.84;;;23.80;33.70
7433;BME280;32233;49.500;7.764;2023-06-14T09:15:19;98261.75;;;23.67;32.95
7433;BME280;32233;49.500;7.764;2023-06-14T09:17:47;98273.41;;;23.63;34.13
7433;BME280;32233;49.500;7.764;2023-06-14T09:20:14;98276.22;;;23.77;34.08
7433;BME280;32233;49.500;7.764;2023-06-14T09:22:45;98270.22;;;23.61;32.98
7433;BME280;32233;49.500;7.764;2023-06-14T09:25:12;98276.75;;;23.36;32.96
7433;BME280;32233;49.500;7.764;2023-06-14T09:28:01;98283.25;;;23.54;33.15
7433;BME280;32233;49.500;7.764;2023-06-14T09:30:28;98280.31;;;23.50;32.39
7433;BME280;32233;49.500;7.764;2023-06-14T09:32:55;98286.25;;;23.52;31.59
7433;BME280;32233;49.500;7.764;2023-06-14T09:35:22;98281.19;;;23.45;31.83
7433;BME280;32233;49.500;7.764;2023-06-14T09:37:49;98293.72;;;23.12;33.10
7433;BME280;32233;49.500;7.764;2023-06-14T09:40:20;98292.66;;;23.56;33.39
7433;BME280;32233;49.500;7.764;2023-06-14T09:42:47;98288.75;;;23.67;32.36
7433;BME280;32233;49.500;7.764;2023-06-14T09:45:14;98288.91;;;23.95;31.91
7433;BME280;32233;49.500;7.764;2023-06-14T09:47:46;98286.50;;;23.32;34.74
7433;BME280;32233;49.500;7.764;2023-06-14T09:50:32;98284.28;;;23.58;33.00
7433;BME280;32233;49.500;7.764;2023-06-14T09:53:03;98294.91;;;23.73;31.48
7433;BME280;32233;49.500;7.764;2023-06-14T09:55:34;98291.84;;;23.98;31.71
7433;BME280;32233;49.500;7.764;2023-06-14T09:58:05;98295.72;;;23.92;33.46
7433;BME280;32233;49.500;7.764;2023-06-14T10:00:34;98286.44;;;23.98;32.38
7433;BME280;32233;49.500;7.764;2023-06-14T10:03:11;98285.47;;;24.27;32.21
7433;BME280;32233;49.500;7.764;2023-06-14T10:05:42;98289.97;;;24.32;32.62
7433;BME280;32233;49.500;7.764;2023-06-14T10:08:13;98292.25;;;23.87;33.26
7433;BME280;32233;49.500;7.764;2023-06-14T10:10:42;98291.91;;;23.51;32.69
7433;BME280;32233;49.500;7.764;2023-06-14T10:13:09;98298.00;;;23.61;33.08
7433;BME280;32233;49.500;7.764;2023-06-14T10:16:00;98287.81;;;23.96;31.19
7433;BME280;32233;49.500;7.764;2023-06-14T10:24:06;98300.38;;;23.87;30.57
7433;BME280;32233;49.500;7.764;2023-06-14T10:26:34;98287.41;;;23.65;32.05
7433;BME280;32233;49.500;7.764;2023-06-14T10:29:07;98288.19;;;23.70;29.91
7433;BME280;32233;49.500;7.764;2023-06-14T10:31:48;98294.91;;;23.73;33.46
7433;BME280;32233;49.500;7.764;2023-06-14T10:34:41;98291.03;;;23.98;31.32
7433;BME280;32233;49.500;7.764;2023-06-14T10:37:12;98290.72;;;24.18;30.82
7433;BME280;32233;49.500;7.764;2023-06-14T10:39:45;98296.22;;;24.13;32.01
7433;BME280;32233;49.500;7.764;2023-06-14T10:42:13;98299.56;;;24.05;31.45
7433;BME280;32233;49.500;7.764;2023-06-14T10:47:10;98290.28;;;24.11;31.24
7433;BME280;32233;49.500;7.764;2023-06-14T10:49:43;98284.97;;;24.06;31.03
7433;BME280;32233;49.500;7.764;2023-06-14T10:52:12;98285.28;;;24.56;31.83
7433;BME280;32233;49.500;7.764;2023-06-14T10:57:40;98279.25;;;24.45;30.99
7433;BME280;32233;49.500;7.764;2023-06-14T11:00:11;98289.72;;;24.14;32.08
7433;BME280;32233;49.500;7.764;2023-06-14T11:05:56;98280.63;;;25.58;28.64
7433;BME280;32233;49.500;7.764;2023-06-14T11:11:09;98284.25;;;25.81;29.70
7433;BME280;32233;49.500;7.764;2023-06-14T11:13:41;98285.63;;;25.92;28.52
7433;BME280;32233;49.500;7.764;2023-06-14T11:16:17;98273.66;;;25.30;29.16
7433;BME280;32233;49.500;7.764;2023-06-14T11:18:49;98283.59;;;25.20;30.52
7433;BME280;32233;49.500;7.764;2023-06-14T11:21:16;98271.66;;;25.49;29.89
7433;BME280;32233;49.500;7.764;2023-06-14T11:23:51;98283.94;;;25.69;29.89
7433;BME280;32233;49.500;7.764;2023-06-14T11:26:28;98278.88;;;25.12;29.63
7433;BME280;32233;49.500;7.764;2023-06-14T11:28:56;98287.13;;;24.75;28.98
7433;BME280;32233;49.500;7.764;2023-06-14T11:31:24;98281.09;;;24.78;29.90
7433;BME280;32233;49.500;7.764;2023-06-14T11:33:53;98276.03;;;25.59;28.94
7433;BME280;32233;49.500;7.764;2023-06-14T11:36:20;98274.03;;;25.64;30.50
7433;BME280;32233;49.500;7.764;2023-06-14T11:38:47;98286.69;;;26.05;30.18
7433;BME280;32233;49.500;7.764;2023-06-14T11:41:14;98269.72;;;25.50;29.15
7433;BME280;32233;49.500;7.764;2023-06-14T11:43:40;98270.03;;;25.07;29.76
7433;BME280;32233;49.500;7.764;2023-06-14T11:46:14;98286.69;;;26.05;27.98
7433;BME280;32233;49.500;7.764;2023-06-14T11:48:44;98262.13;;;26.47;30.22
7433;BME280;32233;49.500;7.764;2023-06-14T11:51:11;98257.56;;;26.87;28.88
7433;BME280;32233;49.500;7.764;2023-06-14T11:53:38;98249.44;;;26.87;28.07
7433;BME280;32233;49.500;7.764;2023-06-14T11:56:05;98252.75;;;26.84;27.78
7433;BME280;32233;49.500;7.764;2023-06-14T11:58:32;98249.72;;;25.87;29.13
7433;BME280;32233;49.500;7.764;2023-06-14T12:00:59;98263.78;;;26.11;28.63
7433;BME280;32233;49.500;7.764;2023-06-14T12:03:26;98253.50;;;26.22;30.65
7433;BME280;32233;49.500;7.764;2023-06-14T12:06:05;98267.78;;;26.59;27.43
7433;BME280;32233;49.500;7.764;2023-06-14T12:08:35;98267.06;;;26.45;29.31
7433;BME280;32233;49.500;7.764;2023-06-14T12:11:11;98259.97;;;27.28;29.16
7433;BME280;32233;49.500;7.764;2023-06-14T12:13:38;98259.84;;;27.42;27.37
7433;BME280;32233;49.500;7.764;2023-06-14T12:16:10;98264.13;;;26.41;29.70
7433;BME280;32233;49.500;7.764;2023-06-14T12:18:38;98267.41;;;26.07;30.29
7433;BME280;32233;49.500;7.764;2023-06-14T12:21:06;98266.78;;;24.77;30.79
7433;BME280;32233;49.500;7.764;2023-06-14T12:23:43;98266.63;;;24.22;33.10
7433;BME280;32233;49.500;7.764;2023-06-14T12:26:18;98259.84;;;26.62;29.03
7433;BME280;32233;49.500;7.764;2023-06-14T12:28:45;98258.56;;;27.39;28.55
7433;BME280;32233;49.500;7.764;2023-06-14T12:31:13;98258.63;;;27.83;27.35
7433;BME280;32233;49.500;7.764;2023-06-14T12:33:40;98269.38;;;27.97;27.75
7433;BME280;32233;49.500;7.764;2023-06-14T12:36:08;98261.50;;;28.04;27.25
7433;BME280;32233;49.500;7.764;2023-06-14T12:38:37;98266.69;;;26.91;27.78
7433;BME280;32233;49.500;7.764;2023-06-14T12:41:04;98280.97;;;26.74;29.65
7433;BME280;32233;49.500;7.764;2023-06-14T12:43:30;98261.25;;;26.91;29.27
7433;BME280;32233;49.500;7.764;2023-06-14T12:45:57;98266.03;;;27.25;27.36
7433;BME280;32233;49.500;7.764;2023-06-14T12:48:24;98261.06;;;27.84;27.95
7433;BME280;32233;49.500;7.764;2023-06-14T12:50:50;98266.75;;;27.65;28.22
7433;BME280;32233;49.500;7.764;2023-06-14T12:53:17;98269.19;;;27.84;27.07
7433;BME280;32233;49.500;7.764;2023-06-14T12:55:44;98271.38;;;26.46;29.57
7433;BME280;32233;49.500;7.764;2023-06-14T12:58:11;98273.41;;;27.02;28.16
7433;BME280;32233;49.500;7.764;2023-06-14T13:00:40;98276.09;;;26.62;28.97
7433;BME280;32233;49.500;7.764;2023-06-14T13:03:07;98275.72;;;26.33;30.23
7433;BME280;32233;49.500;7.764;2023-06-14T13:05:33;98280.25;;;25.51;31.15
7433;BME280;32233;49.500;7.764;2023-06-14T13:08:00;98269.44;;;24.82;30.58
7433;BME280;32233;49.500;7.764;2023-06-14T13:10:27;98276.66;;;25.14;31.72
7433;BME280;32233;49.500;7.764;2023-06-14T13:12:54;98283.06;;;25.60;29.96
7433;BME280;32233;49.500;7.764;2023-06-14T13:15:22;98277.25;;;25.39;30.82
7433;BME280;32233;49.500;7.764;2023-06-14T13:17:48;98278.88;;;25.26;29.33
7433;BME280;32233;49.500;7.764;2023-06-14T13:20:15;98274.22;;;25.54;29.56
7433;BME280;32233;49.500;7.764;2023-06-14T13:22:46;98265.22;;;25.45;28.86
7433;BME280;32233;49.500;7.764;2023-06-14T13:25:13;98269.06;;;25.44;29.19
7433;BME280;32233;49.500;7.764;2023-06-14T13:27:39;98269.66;;;25.27;29.60
7433;BME280;32233;49.500;7.764;2023-06-14T13:30:06;98273.72;;;24.97;29.72
7433;BME280;32233;49.500;7.764;2023-06-14T13:32:33;98281.78;;;25.16;30.40
7433;BME280;32233;49.500;7.764;2023-06-14T13:35:00;98279.03;;;25.02;29.17
7433;BME280;32233;49.500;7.764;2023-06-14T13:37:27;98277.22;;;24.84;29.55
7433;BME280;32233;49.500;7.764;2023-06-14T13:39:54;98273.41;;;24.85;29.77
7433;BME280;32233;49.500;7.764;2023-06-14T13:42:21;98274.00;;;24.82;29.88